Terminal Aerodrome Forecast
Issued by NWS Jackson, MS

Current Version | Previous Version | Text Only | Print | Product List | Glossary On
Versions: 1 2 3 4 5 6 7 8 9 10 11 12 13 14 15 16 17 18 19
000
FTUS44 KJAN 282321
TAFGLH
TAF
KGLH 282321Z 2900/2924 VRB04KT P6SM FEW040 BKN250
     FM290600 VRB03KT 4SM BR SCT250
     FM291400 17006KT P6SM SCT025
     FM291800 18008KT P6SM VCTS SCT040CB=

USA.gov is the U.S. government's official web portal to all federal, state and local government web resources and services.